Alpha, Iowa
Current Conditions -  °F | °C
As of 4:55 PM on Saturday 20 Dec 2014 (Local Time) from KDEH Reporting Station
Haze Haze  
Wind Chill: -5°   Ceiling: 600
Heat Index: -1°   Visibility: 3mi
Dew Point: -1°   Wind: 8mph
Humidity: 100%   Direction: 150°SSE
Pressure: 30.14"   Gusts: NA
Location:  43.0382°N, 92.0219°W
Report Text: KDEH 202255Z AUTO 15007KT 3SM BR OVC006 M01/M01 A3014 RMK AO2
Loading
Personal Weather Stations






























Interactive Weather Map New forecast layout! Learn more

10-Day Weather Forecast

Advertisements
Track Severe Weather on mobile